createdAt,value
2019-05-29T00:00:30.991Z,47.79
2019-05-29T00:03:00.341Z,47.63
2019-05-29T00:05:29.615Z,47.75
2019-05-29T00:07:58.954Z,48.45
2019-05-29T00:10:28.239Z,48.80
2019-05-29T00:12:57.496Z,48.85
2019-05-29T00:15:28.459Z,48.92
2019-05-29T00:17:57.725Z,48.93
2019-05-29T00:20:26.936Z,48.95
2019-05-29T00:22:56.250Z,48.83
2019-05-29T00:25:25.544Z,48.93
2019-05-29T00:27:55.822Z,48.86
2019-05-29T00:30:25.049Z,48.66
2019-05-29T00:32:54.236Z,48.66
2019-05-29T00:35:25.983Z,48.56
2019-05-29T00:37:55.205Z,48.73
2019-05-29T00:40:24.723Z,48.94
2019-05-29T00:42:54.164Z,49.61
2019-05-29T00:45:23.349Z,49.35
2019-05-29T00:47:52.606Z,49.42
2019-05-29T00:50:21.906Z,49.20
2019-05-29T00:52:51.229Z,48.99
2019-05-29T00:55:20.481Z,48.81
2019-05-29T00:57:49.720Z,48.58
2019-05-29T01:00:20.777Z,49.04
2019-05-29T01:02:50.257Z,49.20
2019-05-29T01:05:20.138Z,49.44
2019-05-29T01:07:49.514Z,49.38
2019-05-29T01:10:18.986Z,49.45
2019-05-29T01:12:48.243Z,49.63
2019-05-29T01:15:19.554Z,49.48
2019-05-29T01:17:48.769Z,49.33
2019-05-29T01:20:18.134Z,49.18
2019-05-29T01:22:47.445Z,49.15
2019-05-29T01:25:16.712Z,49.25
2019-05-29T01:27:46.875Z,49.91
2019-05-29T01:30:17.225Z,50.25
2019-05-29T01:32:46.610Z,49.84
2019-05-29T01:35:15.837Z,49.91
2019-05-29T01:37:45.025Z,49.99
2019-05-29T01:40:24.674Z,51.11
2019-05-29T01:42:50.383Z,51.17
2019-05-29T01:45:19.666Z,50.98
2019-05-29T01:47:48.919Z,50.27
2019-05-29T01:50:18.091Z,50.39
2019-05-29T01:52:47.401Z,50.57
2019-05-29T01:55:17.724Z,50.08
2019-05-29T01:57:47.386Z,49.64
2019-05-29T02:00:17.815Z,49.55
2019-05-29T02:02:47.238Z,49.23
2019-05-29T02:05:17.783Z,49.15
2019-05-29T02:07:47.190Z,48.61
2019-05-29T02:10:16.365Z,48.52
2019-05-29T02:12:45.594Z,48.52
2019-05-29T02:15:23.697Z,48.45
2019-05-29T02:17:45.837Z,48.53
2019-05-29T02:20:15.114Z,48.24
2019-05-29T02:22:44.388Z,48.53
2019-05-29T02:25:15.918Z,48.87
2019-05-29T02:27:44.683Z,48.59
2019-05-29T02:30:13.868Z,48.72
2019-05-29T02:32:43.114Z,48.92
2019-05-29T02:35:12.391Z,48.81
2019-05-29T02:37:41.574Z,48.79
2019-05-29T02:40:11.609Z,49.07
2019-05-29T02:42:40.784Z,48.77
2019-05-29T02:45:10.622Z,48.45
2019-05-29T02:47:39.920Z,48.50
2019-05-29T02:50:09.184Z,48.42
2019-05-29T02:52:38.582Z,48.73
2019-05-29T02:55:08.082Z,48.77
2019-05-29T02:57:37.256Z,48.63
2019-05-29T03:00:07.166Z,48.55
2019-05-29T03:02:36.401Z,48.65
2019-05-29T03:05:07.573Z,49.10
2019-05-29T03:07:36.804Z,48.82
2019-05-29T03:10:07.292Z,48.71
2019-05-29T03:12:37.007Z,48.36
2019-05-29T03:15:07.887Z,48.67
2019-05-29T03:17:37.361Z,48.97
2019-05-29T03:20:06.920Z,48.82
2019-05-29T03:22:36.184Z,48.61
2019-05-29T03:25:07.032Z,48.35
2019-05-29T03:27:38.059Z,48.10
2019-05-29T03:30:07.558Z,48.41
2019-05-29T03:32:45.600Z,48.45
2019-05-29T03:35:08.609Z,48.51
2019-05-29T03:37:38.698Z,49.02
2019-05-29T03:40:08.531Z,48.82
2019-05-29T03:42:39.054Z,48.84
2019-05-29T03:45:09.086Z,48.88
2019-05-29T03:47:38.283Z,48.24
2019-05-29T03:50:08.597Z,47.72
2019-05-29T03:52:38.964Z,47.20
2019-05-29T03:55:08.578Z,47.29
2019-05-29T03:57:38.373Z,46.83
2019-05-29T04:00:07.677Z,46.44
2019-05-29T04:02:38.168Z,46.83
2019-05-29T04:05:09.511Z,47.62
2019-05-29T04:07:38.774Z,47.63
2019-05-29T04:10:09.372Z,47.98
2019-05-29T04:12:38.616Z,48.02
2019-05-29T04:15:07.874Z,47.77
2019-05-29T04:17:38.003Z,47.90
2019-05-29T04:20:07.461Z,48.58
2019-05-29T04:22:45.684Z,48.92
2019-05-29T04:25:14.935Z,49.20
2019-05-29T04:27:44.158Z,50.24
2019-05-29T04:30:14.265Z,50.65
2019-05-29T04:32:44.789Z,50.95
2019-05-29T04:35:16.794Z,51.65
2019-05-29T04:37:46.260Z,50.94
2019-05-29T04:40:15.414Z,50.17
2019-05-29T04:42:44.671Z,50.50
2019-05-29T04:45:14.017Z,50.07
2019-05-29T04:47:43.418Z,49.58
2019-05-29T04:50:14.637Z,49.50
2019-05-29T04:52:44.966Z,49.75
2019-05-29T04:55:14.363Z,50.08
2019-05-29T04:57:44.330Z,50.84
2019-05-29T05:00:13.515Z,50.45
2019-05-29T05:02:42.868Z,50.74
2019-05-29T05:05:12.355Z,52.24
2019-05-29T05:07:41.664Z,52.43
2019-05-29T05:10:10.845Z,52.86
2019-05-29T05:12:40.717Z,53.52
2019-05-29T05:15:10.217Z,53.43
2019-05-29T05:17:40.128Z,53.72
2019-05-29T05:20:09.519Z,52.46
2019-05-29T05:22:38.705Z,53.05
2019-05-29T05:25:08.236Z,53.08
2019-05-29T05:27:38.424Z,53.28
2019-05-29T05:30:09.108Z,54.63
2019-05-29T05:32:38.960Z,54.38
2019-05-29T05:35:09.349Z,53.73
2019-05-29T05:37:38.918Z,54.06
2019-05-29T05:40:08.307Z,53.54
2019-05-29T05:42:38.933Z,54.17
2019-05-29T05:45:08.358Z,53.42
2019-05-29T05:47:50.357Z,53.43
2019-05-29T05:50:08.757Z,53.54
2019-05-29T05:52:39.405Z,54.18
2019-05-29T05:55:08.779Z,53.96
2019-05-29T05:57:38.007Z,55.07
2019-05-29T06:00:10.305Z,55.57
2019-05-29T06:02:40.134Z,55.20
2019-05-29T06:05:10.157Z,54.66
2019-05-29T06:07:40.795Z,56.03
2019-05-29T06:10:09.980Z,54.99
2019-05-29T06:12:40.508Z,54.47
2019-05-29T06:15:09.964Z,54.28
2019-05-29T06:17:39.161Z,53.92
2019-05-29T06:20:08.481Z,53.20
2019-05-29T06:22:38.979Z,53.39
2019-05-29T06:25:08.356Z,54.94
2019-05-29T06:27:37.669Z,56.27
2019-05-29T06:30:08.485Z,55.68
2019-05-29T06:32:37.750Z,55.82
2019-05-29T06:35:07.424Z,55.82
2019-05-29T06:37:37.564Z,55.42
2019-05-29T06:40:06.973Z,55.13
2019-05-29T06:42:36.212Z,55.12
2019-05-29T06:45:06.703Z,54.24
2019-05-29T06:47:36.548Z,54.60
2019-05-29T06:50:06.185Z,54.91
2019-05-29T06:52:35.434Z,55.40
2019-05-29T06:55:05.103Z,54.88
2019-05-29T06:57:35.899Z,54.29
2019-05-29T07:00:09.477Z,53.15
2019-05-29T07:02:38.665Z,54.06
2019-05-29T07:05:09.507Z,54.66
2019-05-29T07:07:40.174Z,53.91
2019-05-29T07:10:09.568Z,54.22
2019-05-29T07:12:38.766Z,53.45
2019-05-29T07:15:08.333Z,55.29
2019-05-29T07:17:38.567Z,56.27
2019-05-29T07:20:07.916Z,54.00
2019-05-29T07:22:37.197Z,55.01
2019-05-29T07:25:07.395Z,54.92
2019-05-29T07:27:36.881Z,54.56
2019-05-29T07:30:06.487Z,53.94
2019-05-29T07:32:38.114Z,54.01
2019-05-29T07:35:06.746Z,52.33
2019-05-29T07:37:37.541Z,53.98
2019-05-29T07:40:07.744Z,54.64
2019-05-29T07:42:37.064Z,55.04
2019-05-29T07:45:07.979Z,55.12
2019-05-29T07:47:38.329Z,53.68
2019-05-29T07:50:07.716Z,54.87
2019-05-29T07:52:38.322Z,54.44
2019-05-29T07:55:08.015Z,54.72
2019-05-29T07:57:38.684Z,55.22
2019-05-29T08:00:08.383Z,54.76
2019-05-29T08:02:39.180Z,54.38
2019-05-29T08:05:08.696Z,54.47
2019-05-29T08:07:39.292Z,55.80
2019-05-29T08:10:08.892Z,55.83
2019-05-29T08:12:42.398Z,55.46
2019-05-29T08:15:09.552Z,55.51
2019-05-29T08:17:39.945Z,56.45
2019-05-29T08:20:09.385Z,56.73
2019-05-29T08:22:38.604Z,56.53
2019-05-29T08:25:07.826Z,56.08
2019-05-29T08:27:37.010Z,56.58
2019-05-29T08:30:08.031Z,56.08
2019-05-29T08:32:37.223Z,55.70
2019-05-29T08:35:09.363Z,54.95
2019-05-29T08:37:38.547Z,53.85
2019-05-29T08:40:08.418Z,55.45
2019-05-29T08:42:37.661Z,54.43
2019-05-29T08:45:07.321Z,55.08
2019-05-29T08:47:36.530Z,54.17
2019-05-29T08:50:18.033Z,54.45
2019-05-29T08:52:37.103Z,53.56
2019-05-29T08:55:06.548Z,53.48
2019-05-29T08:57:35.747Z,53.57
2019-05-29T09:00:08.221Z,53.61
2019-05-29T09:02:37.505Z,53.06
2019-05-29T09:05:10.065Z,53.36
2019-05-29T09:07:39.266Z,52.93
2019-05-29T09:10:08.450Z,54.25
2019-05-29T09:12:37.651Z,55.44
2019-05-29T09:15:07.842Z,54.38
2019-05-29T09:17:37.358Z,53.22
2019-05-29T09:20:07.240Z,52.78
2019-05-29T09:22:36.433Z,53.49
2019-05-29T09:25:06.254Z,52.50
2019-05-29T09:27:35.484Z,52.98
2019-05-29T09:30:05.999Z,53.03
2019-05-29T09:32:49.509Z,53.46
2019-05-29T09:35:06.118Z,52.07
2019-05-29T09:37:35.359Z,52.03
2019-05-29T09:40:06.971Z,51.04
2019-05-29T09:42:36.166Z,50.58
2019-05-29T09:45:06.746Z,49.22
2019-05-29T09:47:36.004Z,49.32
2019-05-29T09:50:09.261Z,49.39
2019-05-29T09:52:38.505Z,48.73
2019-05-29T09:55:07.770Z,49.12
2019-05-29T09:57:36.961Z,48.39
2019-05-29T10:00:10.500Z,49.72
2019-05-29T10:02:39.679Z,49.49
2019-05-29T10:05:08.940Z,48.71
2019-05-29T10:07:38.744Z,49.84
2019-05-29T10:10:10.003Z,49.80
2019-05-29T10:12:39.246Z,49.52
2019-05-29T10:15:09.333Z,49.14
2019-05-29T10:17:40.276Z,50.10
2019-05-29T10:20:10.658Z,50.01
2019-05-29T10:22:39.901Z,48.48
2019-05-29T10:25:09.094Z,50.00
2019-05-29T10:27:38.275Z,50.61
2019-05-29T10:30:07.825Z,50.98
2019-05-29T10:32:37.068Z,50.73
2019-05-29T10:35:06.889Z,49.54
2019-05-29T10:37:36.114Z,50.21
2019-05-29T10:40:06.753Z,48.71
2019-05-29T10:42:36.304Z,49.34
2019-05-29T10:45:07.527Z,50.46
2019-05-29T10:47:36.696Z,49.89
2019-05-29T10:50:07.654Z,48.88
2019-05-29T10:52:36.938Z,49.78
2019-05-29T10:55:09.058Z,47.85
2019-05-29T10:57:38.232Z,48.65
2019-05-29T11:00:08.073Z,47.16
2019-05-29T11:02:37.326Z,46.63
2019-05-29T11:05:06.582Z,46.22
2019-05-29T11:07:35.857Z,47.51
2019-05-29T11:10:07.549Z,47.90
2019-05-29T11:12:39.270Z,47.97
2019-05-29T11:15:20.726Z,46.80
2019-05-29T11:17:39.242Z,49.33
2019-05-29T11:20:11.113Z,48.67
2019-05-29T11:22:40.390Z,48.79
2019-05-29T11:25:22.446Z,48.79
2019-05-29T11:27:41.477Z,49.84
2019-05-29T11:30:10.853Z,49.89
2019-05-29T11:32:40.989Z,50.51
2019-05-29T11:35:10.980Z,50.57
2019-05-29T11:37:40.197Z,51.04
2019-05-29T11:40:09.516Z,50.46
2019-05-29T11:42:40.330Z,49.46
2019-05-29T11:45:12.372Z,48.38
2019-05-29T11:47:41.571Z,49.79
2019-05-29T11:50:19.274Z,49.11
2019-05-29T11:52:43.423Z,48.19
2019-05-29T11:55:12.932Z,48.37
2019-05-29T11:57:42.099Z,46.62
2019-05-29T12:00:20.422Z,45.89
2019-05-29T12:02:45.358Z,46.23
2019-05-29T12:05:14.681Z,45.02
2019-05-29T12:07:43.961Z,45.59
2019-05-29T12:10:13.167Z,46.33
2019-05-29T12:12:42.531Z,46.46
2019-05-29T12:15:15.795Z,47.14
2019-05-29T12:17:42.751Z,47.11
2019-05-29T12:20:26.774Z,47.34
2019-05-29T12:23:06.993Z,47.08
2019-05-29T12:25:13.886Z,46.97
2019-05-29T12:27:43.203Z,46.18
2019-05-29T12:30:12.414Z,45.53
2019-05-29T12:32:41.603Z,45.97
2019-05-29T12:35:11.351Z,45.75
2019-05-29T12:37:40.637Z,45.42
2019-05-29T12:40:09.843Z,44.02
2019-05-29T12:42:39.053Z,44.45
2019-05-29T12:45:10.072Z,43.50
2019-05-29T12:47:40.901Z,42.76
2019-05-29T12:50:10.513Z,42.74
2019-05-29T12:52:39.748Z,42.54
2019-05-29T12:55:09.850Z,42.87
2019-05-29T12:57:39.109Z,43.05
2019-05-29T13:00:12.389Z,43.96
2019-05-29T13:02:41.666Z,44.39
2019-05-29T13:05:18.277Z,43.90
2019-05-29T13:07:42.222Z,44.57
2019-05-29T13:10:27.200Z,45.20
2019-05-29T13:12:43.342Z,45.20
2019-05-29T13:15:13.843Z,45.29
2019-05-29T13:17:43.134Z,44.71
2019-05-29T13:20:21.018Z,44.07
2019-05-29T13:22:44.175Z,44.06
2019-05-29T13:25:13.750Z,43.31
2019-05-29T13:27:42.942Z,43.39
2019-05-29T13:30:13.113Z,43.73
2019-05-29T13:32:42.817Z,43.87
2019-05-29T13:35:12.443Z,43.84
2019-05-29T13:37:41.612Z,43.52
2019-05-29T13:40:10.962Z,42.26
2019-05-29T13:42:40.222Z,42.60
2019-05-29T13:45:17.880Z,43.59
2019-05-29T13:47:40.494Z,44.19
2019-05-29T13:50:12.325Z,43.86
2019-05-29T13:52:40.853Z,42.91
2019-05-29T13:55:11.844Z,42.46
2019-05-29T13:57:41.089Z,43.28
2019-05-29T14:00:32.657Z,43.43
2019-05-29T14:02:46.293Z,43.76
2019-05-29T14:05:15.944Z,43.93
2019-05-29T14:07:45.334Z,44.43
2019-05-29T14:10:14.629Z,43.83
2019-05-29T14:12:43.814Z,42.56
2019-05-29T14:15:13.091Z,41.69
2019-05-29T14:17:42.592Z,43.07
2019-05-29T14:20:13.035Z,43.65
2019-05-29T14:22:42.339Z,42.81
2019-05-29T14:25:11.795Z,43.24
2019-05-29T14:27:41.054Z,41.35
2019-05-29T14:30:11.321Z,40.53
2019-05-29T14:32:40.736Z,41.65
2019-05-29T14:35:11.117Z,42.26
2019-05-29T14:37:41.019Z,40.60
2019-05-29T14:40:11.907Z,40.63
2019-05-29T14:42:41.474Z,40.14
2019-05-29T14:45:11.055Z,39.17
2019-05-29T14:47:41.526Z,41.25
2019-05-29T14:50:13.320Z,39.51
2019-05-29T14:52:42.848Z,40.71
2019-05-29T14:55:17.616Z,40.61
2019-05-29T14:57:44.806Z,39.15
2019-05-29T15:00:23.165Z,38.32
2019-05-29T15:02:45.585Z,39.24
2019-05-29T15:05:15.176Z,40.82
2019-05-29T15:07:44.532Z,41.55
2019-05-29T15:10:26.156Z,42.14
2019-05-29T15:12:45.174Z,41.41
2019-05-29T15:15:16.564Z,41.24
2019-05-29T15:17:45.339Z,40.07
2019-05-29T15:20:16.739Z,40.65
2019-05-29T15:22:45.428Z,40.94
2019-05-29T15:25:23.460Z,40.50
2019-05-29T15:27:47.329Z,40.41
2019-05-29T15:30:22.856Z,38.64
2019-05-29T15:32:48.002Z,38.49
2019-05-29T15:35:19.843Z,38.74
2019-05-29T15:37:48.337Z,39.32
2019-05-29T15:40:17.606Z,39.05
2019-05-29T15:42:46.804Z,39.04
2019-05-29T15:45:16.152Z,37.78
2019-05-29T15:47:45.437Z,39.26
2019-05-29T15:50:17.976Z,38.52
2019-05-29T15:52:47.235Z,39.97
2019-05-29T15:55:28.148Z,40.11
2019-05-29T15:57:47.636Z,39.85
2019-05-29T16:00:17.724Z,40.42
2019-05-29T16:02:48.835Z,40.39
2019-05-29T16:05:19.512Z,40.08
2019-05-29T16:07:48.741Z,39.58
2019-05-29T16:10:20.601Z,39.94
2019-05-29T16:12:48.932Z,40.42
2019-05-29T16:15:19.475Z,39.85
2019-05-29T16:17:48.925Z,40.01
2019-05-29T16:20:18.716Z,41.05
2019-05-29T16:22:48.143Z,39.99
2019-05-29T16:25:17.563Z,40.73
2019-05-29T16:27:46.811Z,40.97
2019-05-29T16:30:17.794Z,40.88
2019-05-29T16:32:47.196Z,39.39
2019-05-29T16:35:17.165Z,39.00
2019-05-29T16:37:46.595Z,39.64
2019-05-29T16:40:16.501Z,39.79
2019-05-29T16:42:46.989Z,39.19
2019-05-29T16:45:16.542Z,40.03
2019-05-29T16:47:45.946Z,39.37
2019-05-29T16:50:17.284Z,39.93
2019-05-29T16:52:46.328Z,39.25
2019-05-29T16:55:17.358Z,39.60
2019-05-29T16:57:46.599Z,39.16
2019-05-29T17:00:17.455Z,39.35
2019-05-29T17:02:47.156Z,39.73
2019-05-29T17:05:17.635Z,39.44
2019-05-29T17:07:47.132Z,39.23
2019-05-29T17:10:16.536Z,38.37
2019-05-29T17:12:45.860Z,39.67
2019-05-29T17:15:16.904Z,39.27
2019-05-29T17:17:46.518Z,38.77
2019-05-29T17:20:18.649Z,38.10
2019-05-29T17:22:47.487Z,38.55
2019-05-29T17:25:16.907Z,38.23
2019-05-29T17:27:46.232Z,38.18
2019-05-29T17:30:18.903Z,38.91
2019-05-29T17:32:48.339Z,38.66
2019-05-29T17:35:18.933Z,38.43
2019-05-29T17:37:48.246Z,38.28
2019-05-29T17:40:17.665Z,37.78
2019-05-29T17:42:46.924Z,37.31
2019-05-29T17:45:20.078Z,37.34
2019-05-29T17:47:47.384Z,37.40
2019-05-29T17:50:19.102Z,37.06
2019-05-29T17:52:47.931Z,37.22
2019-05-29T17:55:19.133Z,37.60
2019-05-29T17:57:48.258Z,37.29
2019-05-29T18:00:20.531Z,37.25
2019-05-29T18:02:52.690Z,37.20
2019-05-29T18:05:22.644Z,37.28
2019-05-29T18:07:52.306Z,37.28
2019-05-29T18:10:22.771Z,37.79
2019-05-29T18:12:52.701Z,37.52
2019-05-29T18:15:22.037Z,37.85
2019-05-29T18:17:51.423Z,38.15
2019-05-29T18:20:21.691Z,38.59
2019-05-29T18:22:51.063Z,38.65
2019-05-29T18:25:20.379Z,39.05
2019-05-29T18:27:49.837Z,38.85
2019-05-29T18:30:20.219Z,38.93
2019-05-29T18:32:49.623Z,38.54
2019-05-29T18:35:19.105Z,38.86
2019-05-29T18:37:48.404Z,38.64
2019-05-29T18:40:17.684Z,38.65
2019-05-29T18:42:46.967Z,38.70
2019-05-29T18:45:20.770Z,39.59
2019-05-29T18:47:48.609Z,39.43
2019-05-29T18:50:17.952Z,39.17
2019-05-29T18:52:47.159Z,39.58
2019-05-29T18:55:16.589Z,39.42
2019-05-29T18:57:45.912Z,39.37
2019-05-29T19:00:15.350Z,39.59
2019-05-29T19:02:44.690Z,39.55
2019-05-29T19:05:15.398Z,39.68
2019-05-29T19:07:44.860Z,39.39
2019-05-29T19:10:14.138Z,39.00
2019-05-29T19:12:43.317Z,39.59
2019-05-29T19:15:12.673Z,40.01
2019-05-29T19:17:41.885Z,39.43
2019-05-29T19:20:11.469Z,39.23
2019-05-29T19:22:40.692Z,38.65
2019-05-29T19:25:10.026Z,38.91
2019-05-29T19:27:42.159Z,38.74
2019-05-29T19:30:10.625Z,39.70
2019-05-29T19:32:39.978Z,39.77
2019-05-29T19:35:09.327Z,39.01
2019-05-29T19:37:38.979Z,39.13
2019-05-29T19:40:08.331Z,38.73
2019-05-29T19:42:37.631Z,38.72
2019-05-29T19:45:10.264Z,38.56
2019-05-29T19:47:39.738Z,38.63
2019-05-29T19:50:11.401Z,38.58
2019-05-29T19:52:40.117Z,38.86
2019-05-29T19:55:09.518Z,38.79
2019-05-29T19:57:55.148Z,38.66
2019-05-29T20:00:12.662Z,38.66
2019-05-29T20:02:42.022Z,38.52
2019-05-29T20:05:11.494Z,38.26
2019-05-29T20:07:40.937Z,38.07
2019-05-29T20:10:10.192Z,38.17
2019-05-29T20:12:39.388Z,38.35
2019-05-29T20:15:08.834Z,38.41
2019-05-29T20:17:38.565Z,38.79
2019-05-29T20:20:08.109Z,38.51
2019-05-29T20:22:38.931Z,38.42
2019-05-29T20:25:08.447Z,38.93
2019-05-29T20:27:39.070Z,39.60
2019-05-29T20:30:10.499Z,38.61
2019-05-29T20:32:39.903Z,39.16
2019-05-29T20:35:09.175Z,38.55
2019-05-29T20:37:38.552Z,38.64
2019-05-29T20:40:08.172Z,38.65
2019-05-29T20:42:38.473Z,38.82
2019-05-29T20:45:08.208Z,38.24
2019-05-29T20:47:38.005Z,38.71
2019-05-29T20:50:11.518Z,38.80
2019-05-29T20:52:41.456Z,38.82
2019-05-29T20:55:11.939Z,38.68
2019-05-29T20:57:42.164Z,38.31
2019-05-29T21:00:12.486Z,38.64
2019-05-29T21:02:42.558Z,38.54
2019-05-29T21:05:12.009Z,38.31
2019-05-29T21:07:41.267Z,39.00
2019-05-29T21:10:10.783Z,38.56
2019-05-29T21:12:44.033Z,38.86
2019-05-29T21:15:11.019Z,39.14
2019-05-29T21:17:40.332Z,38.69
2019-05-29T21:20:09.685Z,39.27
2019-05-29T21:22:38.950Z,39.18
2019-05-29T21:25:12.298Z,39.09
2019-05-29T21:27:43.941Z,38.36
2019-05-29T21:30:11.970Z,37.82
2019-05-29T21:32:44.014Z,37.55
2019-05-29T21:35:13.575Z,37.88
2019-05-29T21:37:44.306Z,37.81
2019-05-29T21:40:13.982Z,37.52
2019-05-29T21:42:44.760Z,38.22
2019-05-29T21:45:14.297Z,38.71
2019-05-29T21:47:45.004Z,38.61
2019-05-29T21:50:14.604Z,38.02
2019-05-29T21:52:44.030Z,37.91
2019-05-29T21:55:13.509Z,38.49
2019-05-29T21:57:45.558Z,38.99
2019-05-29T22:00:15.678Z,38.53
2019-05-29T22:02:46.425Z,38.46
2019-05-29T22:05:16.082Z,39.35
2019-05-29T22:07:46.844Z,39.75
2019-05-29T22:10:16.425Z,40.01
2019-05-29T22:12:45.816Z,40.13
2019-05-29T22:15:15.977Z,39.32
2019-05-29T22:17:45.389Z,39.49
2019-05-29T22:20:14.794Z,38.79
2019-05-29T22:22:43.995Z,38.45
2019-05-29T22:25:13.324Z,37.95
2019-05-29T22:27:42.786Z,38.39
2019-05-29T22:30:12.126Z,38.85
2019-05-29T22:32:41.379Z,39.75
2019-05-29T22:35:10.921Z,40.37
2019-05-29T22:37:40.189Z,40.01
2019-05-29T22:40:09.390Z,40.42
2019-05-29T22:42:38.817Z,40.10
2019-05-29T22:45:38.810Z,40.83
2019-05-29T22:48:08.104Z,40.45
2019-05-29T22:50:37.362Z,41.41
2019-05-29T22:53:06.667Z,41.19
2019-05-29T22:55:35.936Z,41.80
2019-05-29T22:58:05.216Z,41.80
2019-05-29T23:00:34.482Z,41.25
2019-05-29T23:03:03.670Z,41.70
2019-05-29T23:05:32.953Z,41.13
2019-05-29T23:08:02.556Z,40.34
2019-05-29T23:10:31.915Z,40.41
2019-05-29T23:13:04.379Z,40.15
2019-05-29T23:15:32.081Z,39.27
2019-05-29T23:18:02.689Z,39.71
2019-05-29T23:20:32.170Z,39.61
2019-05-29T23:23:02.790Z,39.50
2019-05-29T23:25:32.209Z,40.30
2019-05-29T23:28:04.518Z,40.50
2019-05-29T23:30:33.178Z,40.40
2019-05-29T23:33:03.457Z,39.35
2019-05-29T23:35:32.910Z,40.24
2019-05-29T23:38:03.351Z,40.69
2019-05-29T23:40:32.825Z,41.06
2019-05-29T23:43:02.009Z,40.74
2019-05-29T23:45:31.321Z,40.72
2019-05-29T23:48:01.825Z,40.30
2019-05-29T23:50:31.207Z,39.92
2019-05-29T23:53:01.763Z,40.63
2019-05-29T23:55:31.251Z,40.46
2019-05-29T23:58:00.509Z,40.77
